Azamara Quest — 9HOM8 — position and weather

sailwx.info

Track history (hours):
 
Tides and Currents Weather Stations Pressure Air Temp Water Temp Dewpoint Dewpoint Depression Visibility Wind Speed Wind Dir Waves Ship Positions

Azamara Quest

Last reported at 2018-Jun-18 05:19 UTC. Time now 2018-Jun-18 09:22 UTC.
Position N 43°21' E 005°20'.

Length 181 m; draft 5.9 m.

Type: Passenger vessel. MMSI: 256216000.

Date/timePositionNaut miles runAvg speedWind from/ knotsBaromVisibWave heightAir tempDewpointWater temp
2018-Jun-18 05:19N 43°21' E 005°20'2 4.3
2018-Jun-18 04:54N 43°21' E 005°17'811.1
2018-Jun-18 04:12N 43°15' E 005°10'4 9.0
2018-Jun-18 03:45N 43°13' E 005°06'23 8.3
2018-Jun-18 01:00N 43°06' E 004°36'22 9.6 300 / 201018.010.8 22.018.918.0
2018-Jun-17 22:46N 43°16' E 004°10'2 9.5
2018-Jun-17 22:31N 43°17' E 004°07'714.4
2018-Jun-17 22:01N 43°19' E 003°57'714.8
2018-Jun-17 21:30N 43°21' E 003°48'5 9.1
2018-Jun-17 20:58N 43°24' E 003°42'0 0.0
2018-Jun-17 05:45N 43°24' E 003°42'1 1.7
2018-Jun-17 05:15N 43°24' E 003°43'210.4
2018-Jun-17 05:00N 43°22' E 003°46'5313.1
2018-Jun-17 01:00N 42°30' E 003°42'6015.1 290 / 401016.010.8 21.017.818.0
2018-Jun-16 21:00N 41°36' E 003°06'3415.6 360 / 201016.010.8 22.011.321.0
2018-Jun-16 18:47N 41°23' E 002°24'516.9
2018-Jun-16 18:30N 41°21' E 002°18'6 0.4
2018-Jun-16 03:22N 41°22' E 002°11'1 3.6
2018-Jun-16 03:00N 41°21' E 002°11'4 8.7
2018-Jun-16 02:30N 41°18' E 002°16'4 8.8
2018-Jun-16 02:00N 41°14' E 002°18'5 8.6
2018-Jun-16 01:27N 41°10' E 002°21'4 8.1
2018-Jun-16 00:57N 41°06' E 002°21'9114.2
2018-Jun-15 18:33N 39°35' E 002°09'114.7
2018-Jun-15 18:29N 39°34' E 002°10'1114.1
2018-Jun-15 17:43N 39°26' E 002°18'314.3
2018-Jun-15 17:30N 39°24' E 002°22'713.7
2018-Jun-15 17:00N 39°24' E 002°31'714.2
2018-Jun-15 16:30N 39°29' E 002°37'4 8.7
2018-Jun-15 16:00N 39°33' E 002°38'0 0.0
2018-Jun-15 15:30N 39°33' E 002°38'0 0.0
2018-Jun-15 15:00N 39°33' E 002°38'0 0.0
2018-Jun-15 14:30N 39°33' E 002°38'0 0.0
2018-Jun-15 14:00N 39°33' E 002°38'0 0.0
2018-Jun-15 13:30N 39°33' E 002°38'0 0.0
2018-Jun-15 13:00N 39°33' E 002°38'0 0.0
2018-Jun-15 11:57N 39°33' E 002°38'0 0.0
2018-Jun-15 11:30N 39°33' E 002°38'0 0.0
2018-Jun-15 11:00N 39°33' E 002°38'0 0.0
2018-Jun-15 10:30N 39°33' E 002°38'0 0.0
2018-Jun-15 10:00N 39°33' E 002°38'0 0.0
2018-Jun-15 09:30N 39°33' E 002°38'0 0.0
2018-Jun-15 09:00N 39°33' E 002°38'0 0.0
2018-Jun-15 08:30N 39°33' E 002°38'0 0.0
2018-Jun-15 08:00N 39°33' E 002°38'0 0.0
2018-Jun-15 07:27N 39°33' E 002°38'0 0.0
2018-Jun-15 07:00N 39°33' E 002°38'0 0.0
2018-Jun-15 06:24N 39°33' E 002°38'0 0.0
2018-Jun-15 06:00N 39°33' E 002°38'1 1.9
2018-Jun-15 05:30N 39°32' E 002°39'3 6.7
2018-Jun-15 05:00N 39°29' E 002°37'612.0
2018-Jun-15 04:30N 39°24' E 002°34'613.2
2018-Jun-15 04:00N 39°17' E 002°36'713.6
2018-Jun-15 03:30N 39°11' E 002°39'814.9
2018-Jun-15 03:00N 39°06' E 002°46'714.7
2018-Jun-15 02:29N 39°01' E 002°54'613.2
2018-Jun-15 02:00N 39°02' E 003°02'1214.2
2018-Jun-15 01:09N 39°06' E 003°17'1 6.5
2018-Jun-15 01:00N 39°06' E 003°18'617.1 170 / 61015.010.8 22.018.918.0
2018-Jun-15 00:38N 39°09' E 003°25'414.1
2018-Jun-15 00:22N 39°11' E 003°29'814.0
2018-Jun-14 23:48N 39°16' E 003°37'141 6.2
2018-Jun-14 01:00N 40°24' E 006°18'83 3.6 320 / 401007.010.8 22.020.517.0
2018-Jun-13 02:00N 40°54' E 008°00'45 1.8 260 / 201010.010.8 22.022.017.0
2018-Jun-12 01:00N 41°30' E 008°36'6910.4 250 / 161010.010.8 23.023.017.0
2018-Jun-11 18:17N 41°03' E 010°01'2814.6
2018-Jun-11 16:23N 40°37' E 010°13'615.0
2018-Jun-11 16:00N 40°31' E 010°15'815.0
2018-Jun-11 15:30N 40°24' E 010°17'815.0
2018-Jun-11 15:00N 40°17' E 010°19'715.0
2018-Jun-11 14:30N 40°09' E 010°21'715.0
2018-Jun-11 14:01N 40°02' E 010°23'815.0
2018-Jun-11 13:30N 39°55' E 010°25'815.0
2018-Jun-11 13:00N 39°47' E 010°28'815.2
2018-Jun-11 12:31N 39°40' E 010°30'815.0
2018-Jun-11 12:00N 39°33' E 010°32'2415.1
2018-Jun-11 10:23N 39°09' E 010°40'3115.3
2018-Jun-11 08:22N 38°39' E 010°51'10614.4
2018-Jun-11 01:00N 37°18' E 012°18'124 6.8 050 / 101012.010.8 22.022.017.0
2018-Jun-10 06:54N 36°01' E 014°18'2 5.6
2018-Jun-10 06:30N 36°00' E 014°21'4 7.3
2018-Jun-10 06:01N 36°02' E 014°25'3 6.8
2018-Jun-10 05:30N 36°02' E 014°29'4 7.1
2018-Jun-10 05:00N 35°59' E 014°33'3 6.8
2018-Jun-10 04:30N 35°56' E 014°33'23 0.9
2018-Jun-09 01:59N 36°10' E 014°56'5 9.1
2018-Jun-09 01:27N 36°13' E 015°01'4 8.9
2018-Jun-09 01:00N 36°15' E 015°05'51516.9
2018-Jun-09 01:00N 36°12' E 015°00'1019.0 290 / 301014.010.8 23.021.517.0
2018-Jun-09 00:27N 36°18' E 015°10'4111.9
2018-Jun-08 21:00N 36°54' E 015°36'70 5.3 360 / 101011.010.8 23.012.622.0
2018-Jun-08 07:40N 38°04' E 015°31'312.7
2018-Jun-08 07:27N 38°06' E 015°33'614.4
2018-Jun-08 07:00N 38°12' E 015°36'713.4
2018-Jun-08 06:29N 38°18' E 015°40'613.4
2018-Jun-08 06:00N 38°24' E 015°38'713.5
2018-Jun-08 05:30N 38°30' E 015°34'  
Track history (hours):
 
Tides and Currents Weather Stations Pressure Air Temp Water Temp Dewpoint Dewpoint Depression Visibility Wind Speed Wind Dir Waves Ship Positions

Azamara Quest

Last reported at 2018-Jun-18 05:19 UTC. Time now 2018-Jun-18 09:22 UTC.
Position N 43°21' E 005°20'.

Length 181 m; draft 5.9 m.

Type: Passenger vessel. MMSI: 256216000.

Date/timePositionNaut miles runAvg speedWind from/ knotsBaromVisibWave heightAir tempDewpointWater temp
2018-Jun-18 05:19N 43°21' E 005°20'2 4.3
2018-Jun-18 04:54N 43°21' E 005°17'811.1
2018-Jun-18 04:12N 43°15' E 005°10'4 9.0
2018-Jun-18 03:45N 43°13' E 005°06'23 8.3
2018-Jun-18 01:00N 43°06' E 004°36'22 9.6 300 / 201018.010.8 22.018.918.0
2018-Jun-17 22:46N 43°16' E 004°10'2 9.5
2018-Jun-17 22:31N 43°17' E 004°07'714.4
2018-Jun-17 22:01N 43°19' E 003°57'714.8
2018-Jun-17 21:30N 43°21' E 003°48'5 9.1
2018-Jun-17 20:58N 43°24' E 003°42'0 0.0
2018-Jun-17 05:45N 43°24' E 003°42'1 1.7
2018-Jun-17 05:15N 43°24' E 003°43'210.4
2018-Jun-17 05:00N 43°22' E 003°46'5313.1
2018-Jun-17 01:00N 42°30' E 003°42'6015.1 290 / 401016.010.8 21.017.818.0
2018-Jun-16 21:00N 41°36' E 003°06'3415.6 360 / 201016.010.8 22.011.321.0
2018-Jun-16 18:47N 41°23' E 002°24'516.9
2018-Jun-16 18:30N 41°21' E 002°18'6 0.4
2018-Jun-16 03:22N 41°22' E 002°11'1 3.6
2018-Jun-16 03:00N 41°21' E 002°11'4 8.7
2018-Jun-16 02:30N 41°18' E 002°16'4 8.8
2018-Jun-16 02:00N 41°14' E 002°18'5 8.6
2018-Jun-16 01:27N 41°10' E 002°21'4 8.1
2018-Jun-16 00:57N 41°06' E 002°21'9114.2
2018-Jun-15 18:33N 39°35' E 002°09'114.7
2018-Jun-15 18:29N 39°34' E 002°10'1114.1
2018-Jun-15 17:43N 39°26' E 002°18'314.3
2018-Jun-15 17:30N 39°24' E 002°22'713.7
2018-Jun-15 17:00N 39°24' E 002°31'714.2
2018-Jun-15 16:30N 39°29' E 002°37'4 8.7
2018-Jun-15 16:00N 39°33' E 002°38'0 0.0
2018-Jun-15 15:30N 39°33' E 002°38'0 0.0
2018-Jun-15 15:00N 39°33' E 002°38'0 0.0
2018-Jun-15 14:30N 39°33' E 002°38'0 0.0
2018-Jun-15 14:00N 39°33' E 002°38'0 0.0
2018-Jun-15 13:30N 39°33' E 002°38'0 0.0
2018-Jun-15 13:00N 39°33' E 002°38'0 0.0
2018-Jun-15 11:57N 39°33' E 002°38'0 0.0
2018-Jun-15 11:30N 39°33' E 002°38'0 0.0
2018-Jun-15 11:00N 39°33' E 002°38'0 0.0
2018-Jun-15 10:30N 39°33' E 002°38'0 0.0
2018-Jun-15 10:00N 39°33' E 002°38'0 0.0
2018-Jun-15 09:30N 39°33' E 002°38'0 0.0
2018-Jun-15 09:00N 39°33' E 002°38'0 0.0
2018-Jun-15 08:30N 39°33' E 002°38'0 0.0
2018-Jun-15 08:00N 39°33' E 002°38'0 0.0
2018-Jun-15 07:27N 39°33' E 002°38'0 0.0
2018-Jun-15 07:00N 39°33' E 002°38'0 0.0
2018-Jun-15 06:24N 39°33' E 002°38'0 0.0
2018-Jun-15 06:00N 39°33' E 002°38'1 1.9
2018-Jun-15 05:30N 39°32' E 002°39'3 6.7
2018-Jun-15 05:00N 39°29' E 002°37'612.0
2018-Jun-15 04:30N 39°24' E 002°34'613.2
2018-Jun-15 04:00N 39°17' E 002°36'713.6
2018-Jun-15 03:30N 39°11' E 002°39'814.9
2018-Jun-15 03:00N 39°06' E 002°46'714.7
2018-Jun-15 02:29N 39°01' E 002°54'613.2
2018-Jun-15 02:00N 39°02' E 003°02'1214.2
2018-Jun-15 01:09N 39°06' E 003°17'1 6.5
2018-Jun-15 01:00N 39°06' E 003°18'617.1 170 / 61015.010.8 22.018.918.0
2018-Jun-15 00:38N 39°09' E 003°25'414.1
2018-Jun-15 00:22N 39°11' E 003°29'814.0
2018-Jun-14 23:48N 39°16' E 003°37'141 6.2
2018-Jun-14 01:00N 40°24' E 006°18'83 3.6 320 / 401007.010.8 22.020.517.0
2018-Jun-13 02:00N 40°54' E 008°00'45 1.8 260 / 201010.010.8 22.022.017.0
2018-Jun-12 01:00N 41°30' E 008°36'6910.4 250 / 161010.010.8 23.023.017.0
2018-Jun-11 18:17N 41°03' E 010°01'2814.6
2018-Jun-11 16:23N 40°37' E 010°13'615.0
2018-Jun-11 16:00N 40°31' E 010°15'815.0
2018-Jun-11 15:30N 40°24' E 010°17'815.0
2018-Jun-11 15:00N 40°17' E 010°19'715.0
2018-Jun-11 14:30N 40°09' E 010°21'715.0
2018-Jun-11 14:01N 40°02' E 010°23'815.0
2018-Jun-11 13:30N 39°55' E 010°25'815.0
2018-Jun-11 13:00N 39°47' E 010°28'815.2
2018-Jun-11 12:31N 39°40' E 010°30'815.0
2018-Jun-11 12:00N 39°33' E 010°32'2415.1
2018-Jun-11 10:23N 39°09' E 010°40'3115.3
2018-Jun-11 08:22N 38°39' E 010°51'10614.4
2018-Jun-11 01:00N 37°18' E 012°18'124 6.8 050 / 101012.010.8 22.022.017.0
2018-Jun-10 06:54N 36°01' E 014°18'2 5.6
2018-Jun-10 06:30N 36°00' E 014°21'4 7.3
2018-Jun-10 06:01N 36°02' E 014°25'3 6.8
2018-Jun-10 05:30N 36°02' E 014°29'4 7.1
2018-Jun-10 05:00N 35°59' E 014°33'3 6.8
2018-Jun-10 04:30N 35°56' E 014°33'23 0.9
2018-Jun-09 01:59N 36°10' E 014°56'5 9.1
2018-Jun-09 01:27N 36°13' E 015°01'4 8.9
2018-Jun-09 01:00N 36°15' E 015°05'51516.9
2018-Jun-09 01:00N 36°12' E 015°00'1019.0 290 / 301014.010.8 23.021.517.0
2018-Jun-09 00:27N 36°18' E 015°10'4111.9
2018-Jun-08 21:00N 36°54' E 015°36'70 5.3 360 / 101011.010.8 23.012.622.0
2018-Jun-08 07:40N 38°04' E 015°31'312.7
2018-Jun-08 07:27N 38°06' E 015°33'614.4
2018-Jun-08 07:00N 38°12' E 015°36'713.4
2018-Jun-08 06:29N 38°18' E 015°40'613.4
2018-Jun-08 06:00N 38°24' E 015°38'713.5
2018-Jun-08 05:30N 38°30' E 015°34'  

Dump ship's entire track history